Time;durP1;ratioP1;P1;durP2;ratioP2;P2;SDS_P1;SDS_P2;PMS_P1;PMS_P2;Temp;Humidity;BMP_temperature;BMP_pressure;BME280_temperature;BME280_humidity;BME280_pressure;Samples;Min_cycle;Max_cycle;Signal;HPM_P1;HPM_P2
2023/05/31 00:00:27;;;;;;;8.38;6.13;;;12.00;99.90;;;;;;5059677;28;20437;-72
2023/05/31 00:02:52;;;;;;;9.23;6.70;;;12.00;99.90;;;;;;5047806;28;20053;-71
2023/05/31 00:05:18;;;;;;;8.48;6.78;;;11.90;99.90;;;;;;5056266;28;20057;-70
2023/05/31 00:07:44;;;;;;;9.82;6.95;;;11.90;99.90;;;;;;5048901;28;20040;-71
2023/05/31 00:10:19;;;;;;;7.40;6.43;;;11.90;99.90;;;;;;5059468;28;20109;-72
2023/05/31 00:12:44;;;;;;;8.95;7.00;;;11.90;99.90;;;;;;5043895;28;20052;-72
2023/05/31 00:15:10;;;;;;;11.35;7.57;;;11.90;99.90;;;;;;5050588;28;20055;-71
2023/05/31 00:17:36;;;;;;;8.65;5.95;;;11.90;99.90;;;;;;5048957;28;20064;-71
2023/05/31 00:20:02;;;;;;;9.07;6.78;;;11.80;99.90;;;;;;5036989;28;20091;-73
2023/05/31 00:22:28;;;;;;;8.80;6.88;;;11.80;99.90;;;;;;5038960;28;20202;-74
2023/05/31 00:24:55;;;;;;;12.35;7.45;;;11.80;99.90;;;;;;5042568;28;20528;-72
2023/05/31 00:27:20;;;;;;;9.07;7.10;;;11.80;99.90;;;;;;5040453;28;21255;-71
2023/05/31 00:29:46;;;;;;;9.48;7.22;;;11.80;99.90;;;;;;5036126;28;20044;-71
2023/05/31 00:32:11;;;;;;;11.23;8.10;;;11.80;99.90;;;;;;5037165;28;20124;-71
2023/05/31 00:34:37;;;;;;;9.77;8.07;;;11.80;99.90;;;;;;5041029;28;20045;-72
2023/05/31 00:37:03;;;;;;;12.27;7.80;;;11.70;99.90;;;;;;5059923;28;20138;-71
2023/05/31 00:39:29;;;;;;;11.30;8.10;;;11.70;99.90;;;;;;5036782;28;20124;-71
2023/05/31 00:41:55;;;;;;;11.18;7.60;;;11.70;99.90;;;;;;5043934;28;20049;-71
2023/05/31 00:44:20;;;;;;;11.55;8.15;;;11.70;99.90;;;;;;5035905;28;20560;-72
2023/05/31 00:46:46;;;;;;;10.48;8.13;;;11.70;99.90;;;;;;5042410;28;20048;-71
2023/05/31 00:49:12;;;;;;;10.68;7.85;;;11.70;99.90;;;;;;5049542;28;20060;-72
2023/05/31 00:51:38;;;;;;;8.93;7.57;;;11.60;99.90;;;;;;5052670;28;20075;-71
2023/05/31 00:54:04;;;;;;;11.07;7.82;;;11.60;99.90;;;;;;5053637;28;20041;-71
2023/05/31 00:56:30;;;;;;;10.13;7.60;;;11.60;99.90;;;;;;5048014;28;20083;-72
2023/05/31 00:58:59;;;;;;;11.07;8.20;;;11.60;99.90;;;;;;5064517;28;20058;-71
2023/05/31 01:01:27;;;;;;;9.85;7.63;;;11.60;99.90;;;;;;5055673;28;20051;-72
2023/05/31 01:03:56;;;;;;;11.02;6.93;;;11.60;99.90;;;;;;5013026;28;1117500;-71
2023/05/31 01:06:23;;;;;;;11.50;8.23;;;11.60;99.90;;;;;;5057246;28;20158;-72
2023/05/31 01:08:50;;;;;;;11.52;8.70;;;11.60;99.90;;;;;;5058090;28;20044;-73
2023/05/31 01:11:34;;;;;;;10.07;8.10;;;11.60;99.90;;;;;;5057772;28;20041;-71
2023/05/31 01:14:27;;;;;;;11.65;7.20;;;11.50;99.90;;;;;;5049614;28;20037;-72
2023/05/31 01:17:22;;;;;;;11.10;8.18;;;11.50;99.90;;;;;;5066608;28;20077;-70
2023/05/31 01:20:04;;;;;;;11.02;7.78;;;11.50;99.90;;;;;;5059366;28;20052;-72
2023/05/31 01:22:50;;;;;;;12.02;8.90;;;11.50;99.90;;;;;;5061537;28;20119;-71
2023/05/31 01:25:43;;;;;;;11.00;7.63;;;11.40;99.90;;;;;;5059333;28;20053;-71
2023/05/31 01:28:10;;;;;;;10.63;8.32;;;11.40;99.90;;;;;;5054298;28;20526;-74
2023/05/31 01:30:39;;;;;;;10.55;8.65;;;11.30;99.90;;;;;;5058893;28;20123;-71
2023/05/31 01:33:08;;;;;;;12.27;8.77;;;11.40;99.90;;;;;;5061318;28;20134;-71
2023/05/31 01:35:34;;;;;;;11.98;7.65;;;11.30;99.90;;;;;;5055550;28;20056;-71
2023/05/31 01:37:59;;;;;;;11.40;7.35;;;11.30;99.90;;;;;;5059099;28;20040;-71
2023/05/31 01:40:25;;;;;;;10.68;8.45;;;11.30;99.90;;;;;;5059182;28;20043;-71
2023/05/31 01:42:52;;;;;;;10.32;8.18;;;11.30;99.90;;;;;;5036935;28;20059;-71
2023/05/31 01:45:18;;;;;;;11.55;8.88;;;11.20;99.90;;;;;;5060841;28;20062;-71
2023/05/31 01:47:47;;;;;;;10.15;7.28;;;11.20;99.90;;;;;;5045387;28;20863;-71
2023/05/31 01:50:18;;;;;;;11.48;8.80;;;11.20;99.90;;;;;;5044549;28;20102;-72
2023/05/31 01:52:44;;;;;;;11.52;9.10;;;11.20;99.90;;;;;;5049300;28;20044;-70
2023/05/31 01:55:10;;;;;;;12.35;9.32;;;11.10;99.90;;;;;;5059021;28;21182;-71
2023/05/31 01:57:40;;;;;;;10.90;7.63;;;11.10;99.90;;;;;;5054050;28;20060;-72
2023/05/31 02:00:15;;;;;;;13.88;9.05;;;11.00;99.90;;;;;;5056084;28;20046;-72
2023/05/31 02:02:44;;;;;;;13.05;8.18;;;11.00;99.90;;;;;;5058135;28;20040;-71
2023/05/31 02:05:12;;;;;;;11.15;8.93;;;11.00;99.90;;;;;;5051931;28;20059;-71
2023/05/31 02:07:40;;;;;;;11.70;7.50;;;11.00;99.90;;;;;;5039042;28;20160;-71
2023/05/31 02:10:06;;;;;;;12.18;8.50;;;10.90;99.90;;;;;;5056195;28;20166;-71
2023/05/31 02:12:32;;;;;;;13.68;7.63;;;10.90;99.90;;;;;;5044360;28;20052;-71
2023/05/31 02:14:58;;;;;;;10.63;6.93;;;10.90;99.90;;;;;;5058057;28;20052;-73
2023/05/31 02:17:24;;;;;;;11.25;9.27;;;10.90;99.90;;;;;;5064457;28;20044;-71
2023/05/31 02:19:53;;;;;;;12.33;9.33;;;10.90;99.90;;;;;;5057248;28;20557;-72
2023/05/31 02:22:37;;;;;;;11.50;8.98;;;10.90;99.90;;;;;;5053102;28;21550;-72
2023/05/31 02:25:03;;;;;;;12.15;7.47;;;10.90;99.90;;;;;;5053068;28;20036;-70
2023/05/31 02:27:29;;;;;;;12.25;8.80;;;10.80;99.90;;;;;;5054820;28;20058;-71
2023/05/31 02:29:54;;;;;;;11.57;7.57;;;10.80;99.90;;;;;;5052850;28;20044;-73
2023/05/31 02:32:20;;;;;;;12.18;9.02;;;10.80;99.90;;;;;;5033540;28;20052;-71
2023/05/31 02:34:46;;;;;;;11.73;9.15;;;10.80;99.90;;;;;;5050732;28;20745;-72
2023/05/31 02:37:11;;;;;;;11.65;9.68;;;10.80;99.90;;;;;;5048627;28;20036;-70
2023/05/31 02:39:37;;;;;;;12.85;8.32;;;10.80;99.90;;;;;;5043726;28;20049;-71
2023/05/31 02:42:03;;;;;;;13.68;9.63;;;10.80;99.90;;;;;;5057846;28;20135;-71
2023/05/31 02:44:29;;;;;;;14.27;7.88;;;10.70;99.90;;;;;;5059174;28;20045;-71
2023/05/31 02:46:55;;;;;;;13.15;7.95;;;10.70;99.90;;;;;;5053403;28;20047;-72
2023/05/31 02:49:20;;;;;;;16.88;10.75;;;10.70;99.90;;;;;;5042655;28;20048;-73
2023/05/31 02:51:46;;;;;;;12.05;8.35;;;10.70;99.90;;;;;;5052718;28;20750;-72
2023/05/31 02:54:11;;;;;;;14.73;10.27;;;10.70;99.90;;;;;;5054649;28;20579;-72
2023/05/31 02:56:37;;;;;;;15.85;8.85;;;10.60;99.90;;;;;;5051357;28;20048;-71
2023/05/31 02:59:03;;;;;;;18.42;8.95;;;10.60;99.90;;;;;;5053337;28;20040;-72
2023/05/31 03:01:29;;;;;;;14.75;11.13;;;10.60;99.90;;;;;;5043889;28;20044;-73
2023/05/31 03:03:55;;;;;;;13.43;10.57;;;10.60;99.90;;;;;;5055002;28;20047;-72
2023/05/31 03:06:20;;;;;;;13.15;8.55;;;10.60;99.90;;;;;;5047688;28;20044;-72
2023/05/31 03:08:47;;;;;;;14.23;8.50;;;10.50;99.90;;;;;;5048775;28;20044;-71
2023/05/31 03:11:13;;;;;;;15.65;8.85;;;10.60;99.90;;;;;;5054183;28;20106;-72
2023/05/31 03:13:38;;;;;;;18.05;10.10;;;10.50;99.90;;;;;;5055686;28;20498;-71
2023/05/31 03:16:04;;;;;;;13.95;8.65;;;10.50;99.90;;;;;;5064939;28;20055;-71
2023/05/31 03:18:30;;;;;;;14.38;8.63;;;10.50;99.90;;;;;;5064248;28;20079;-72
2023/05/31 03:20:56;;;;;;;15.82;8.38;;;10.50;99.90;;;;;;5037419;28;20921;-70
2023/05/31 03:23:21;;;;;;;15.95;11.07;;;10.50;99.90;;;;;;5045668;28;20059;-71
2023/05/31 03:25:47;;;;;;;15.88;8.93;;;10.50;99.90;;;;;;5051528;28;20044;-72
2023/05/31 03:28:13;;;;;;;16.08;8.57;;;10.50;99.90;;;;;;5066228;28;20070;-71
2023/05/31 03:30:38;;;;;;;16.63;11.00;;;10.50;99.90;;;;;;5050057;28;20052;-71
2023/05/31 03:33:04;;;;;;;14.75;7.75;;;10.50;99.90;;;;;;5053793;28;20048;-71
2023/05/31 03:35:30;;;;;;;14.48;8.73;;;10.50;99.90;;;;;;5055109;28;20442;-70
2023/05/31 03:37:55;;;;;;;14.93;8.85;;;10.50;99.90;;;;;;5049238;28;20136;-70
2023/05/31 03:40:21;;;;;;;15.52;8.55;;;10.50;99.90;;;;;;5045727;28;20127;-71
2023/05/31 03:42:47;;;;;;;15.80;8.65;;;10.50;99.90;;;;;;5053653;28;20124;-71
2023/05/31 03:45:12;;;;;;;13.55;10.57;;;10.50;99.90;;;;;;5057555;28;20045;-70
2023/05/31 03:47:38;;;;;;;14.75;10.63;;;10.60;99.90;;;;;;5045149;28;20483;-71
2023/05/31 03:50:05;;;;;;;13.65;8.25;;;10.50;99.90;;;;;;5047185;28;20044;-72
2023/05/31 03:52:31;;;;;;;;;;;10.60;99.90;;;;;;5055607;28;20052;-71
2023/05/31 03:54:57;;;;;;;17.02;8.57;;;10.60;99.90;;;;;;5054847;28;19924;-71
2023/05/31 03:57:22;;;;;;;16.70;9.13;;;10.50;99.90;;;;;;5055694;28;20049;-71
2023/05/31 03:59:48;;;;;;;17.38;10.98;;;10.50;99.90;;;;;;5057780;28;20036;-71
2023/05/31 04:02:14;;;;;;;15.25;11.45;;;10.50;99.90;;;;;;5053824;28;20040;-71
2023/05/31 04:04:40;;;;;;;15.43;9.40;;;10.60;99.90;;;;;;5043001;28;20057;-70
2023/05/31 04:07:05;;;;;;;15.18;10.93;;;10.60;99.90;;;;;;5049046;28;20048;-72
2023/05/31 04:09:31;;;;;;;17.98;9.90;;;10.60;99.90;;;;;;5070207;28;20122;-72
2023/05/31 04:11:57;;;;;;;17.30;8.70;;;10.70;99.90;;;;;;5056748;28;20471;-71
2023/05/31 04:14:22;;;;;;;16.40;11.10;;;10.60;99.90;;;;;;5043884;28;20044;-71
2023/05/31 04:16:48;;;;;;;16.85;9.95;;;10.60;99.90;;;;;;5056350;28;20048;-71
2023/05/31 04:19:17;;;;;;;16.88;11.50;;;10.70;99.90;;;;;;5053540;28;20058;-72
2023/05/31 04:21:43;;;;;;;18.05;11.07;;;10.70;99.90;;;;;;5045327;28;20037;-72
2023/05/31 04:24:08;;;;;;;17.50;8.77;;;10.70;99.90;;;;;;5060408;28;20439;-71
2023/05/31 04:26:34;;;;;;;18.55;11.93;;;10.80;99.90;;;;;;5051903;28;20047;-71
2023/05/31 04:29:00;;;;;;;18.33;10.32;;;10.80;99.90;;;;;;5064534;28;20055;-72
2023/05/31 04:31:28;;;;;;;16.58;9.40;;;10.80;99.90;;;;;;5054757;28;21722;-71
2023/05/31 04:33:56;;;;;;;18.10;11.80;;;10.80;99.90;;;;;;5039683;28;20041;-73
2023/05/31 04:36:23;;;;;;;15.63;9.70;;;10.80;99.90;;;;;;5045242;28;20541;-71
2023/05/31 04:38:50;;;;;;;17.35;9.68;;;10.90;99.90;;;;;;5053343;28;20201;-71
2023/05/31 04:41:16;;;;;;;16.73;10.48;;;10.90;99.90;;;;;;5062075;28;20076;-71
2023/05/31 04:43:42;;;;;;;15.43;9.45;;;11.00;99.90;;;;;;5051488;28;20056;-72
2023/05/31 04:46:09;;;;;;;18.63;11.65;;;11.00;99.90;;;;;;5053873;28;20068;-72
2023/05/31 04:48:36;;;;;;;17.27;11.65;;;11.00;99.90;;;;;;5061281;28;20048;-71
2023/05/31 04:51:02;;;;;;;17.42;10.02;;;11.10;99.90;;;;;;5047565;28;20052;-71
2023/05/31 04:53:27;;;;;;;18.50;11.60;;;11.10;99.90;;;;;;5059512;28;20549;-71
2023/05/31 04:55:53;;;;;;;18.00;10.20;;;11.20;99.90;;;;;;5057564;28;20079;-72
2023/05/31 04:58:19;;;;;;;20.92;11.68;;;11.30;99.90;;;;;;5047534;28;20056;-72
2023/05/31 05:00:45;;;;;;;17.98;12.05;;;11.30;99.90;;;;;;5053035;28;20515;-73
2023/05/31 05:03:20;;;;;;;17.90;10.65;;;11.40;99.90;;;;;;5065704;28;20055;-72
2023/05/31 05:05:46;;;;;;;17.95;12.77;;;11.40;99.90;;;;;;5047325;28;20052;-72
2023/05/31 05:08:12;;;;;;;17.67;10.32;;;11.40;99.90;;;;;;5054097;28;20048;-71
2023/05/31 05:10:37;;;;;;;18.40;13.05;;;11.50;99.90;;;;;;5046168;28;20093;-73
2023/05/31 05:13:03;;;;;;;19.10;12.63;;;11.50;99.90;;;;;;5056596;28;20052;-71
2023/05/31 05:15:29;;;;;;;19.60;11.48;;;11.60;99.90;;;;;;5061145;28;20044;-72
2023/05/31 05:17:54;;;;;;;18.75;13.23;;;11.70;99.90;;;;;;5057516;28;20049;-71
2023/05/31 05:20:20;;;;;;;19.65;13.40;;;11.70;99.90;;;;;;5056869;28;20526;-72
2023/05/31 05:22:51;;;;;;;17.30;12.75;;;11.80;99.90;;;;;;5047338;28;20053;-71
2023/05/31 05:25:17;;;;;;;18.58;13.23;;;11.90;99.90;;;;;;5045053;28;20045;-73
2023/05/31 05:27:43;;;;;;;21.55;13.15;;;11.90;99.90;;;;;;5038051;28;20049;-72
2023/05/31 05:30:09;;;;;;;18.77;13.43;;;12.00;99.90;;;;;;5055099;28;20043;-71
2023/05/31 05:32:35;;;;;;;20.20;14.20;;;12.00;99.90;;;;;;5046329;28;20056;-70
2023/05/31 05:35:00;;;;;;;19.15;13.15;;;12.10;99.90;;;;;;5052546;28;20040;-70
2023/05/31 05:37:27;;;;;;;21.42;13.75;;;12.10;99.90;;;;;;5048438;28;20530;-71
2023/05/31 05:39:53;;;;;;;18.10;13.35;;;12.20;99.90;;;;;;5048783;28;20887;-70
2023/05/31 05:42:19;;;;;;;20.77;14.35;;;12.30;99.90;;;;;;5064166;28;20051;-70
2023/05/31 05:44:45;;;;;;;20.75;14.18;;;12.30;99.90;;;;;;5044425;28;20123;-68
2023/05/31 05:47:13;;;;;;;18.83;13.32;;;12.40;99.90;;;;;;5058069;28;20048;-69
2023/05/31 05:49:39;;;;;;;19.08;14.27;;;12.40;99.90;;;;;;5053760;28;20059;-68
2023/05/31 05:52:06;;;;;;;20.15;13.85;;;12.50;99.90;;;;;;5055041;28;20080;-68
2023/05/31 05:54:32;;;;;;;21.98;13.55;;;12.50;99.90;;;;;;5049360;28;20052;-68
2023/05/31 05:56:58;;;;;;;16.27;13.05;;;12.60;99.90;;;;;;5050325;28;20095;-67
2023/05/31 05:59:23;;;;;;;19.48;13.70;;;12.70;99.90;;;;;;5057881;28;20194;-69
2023/05/31 06:01:50;;;;;;;21.98;13.85;;;12.70;99.90;;;;;;5057615;28;20107;-70
2023/05/31 06:04:15;;;;;;;23.58;14.18;;;12.80;99.90;;;;;;5049534;28;20059;-68
2023/05/31 06:06:41;;;;;;;20.25;13.77;;;12.90;99.90;;;;;;5049281;28;20048;-68
2023/05/31 06:09:07;;;;;;;19.27;13.30;;;13.00;99.90;;;;;;5060433;28;20054;-68
2023/05/31 06:11:33;;;;;;;21.77;13.80;;;13.10;99.90;;;;;;5054561;28;20050;-70
2023/05/31 06:13:58;;;;;;;18.02;12.95;;;13.10;99.90;;;;;;5051417;28;20365;-68
2023/05/31 06:16:24;;;;;;;16.83;12.60;;;13.20;99.90;;;;;;5055442;28;20484;-69
2023/05/31 06:18:50;;;;;;;21.23;12.93;;;13.30;99.90;;;;;;5064644;28;20056;-70
2023/05/31 06:21:16;;;;;;;17.98;12.45;;;13.30;99.90;;;;;;5051034;28;20477;-70
2023/05/31 06:23:41;;;;;;;16.23;12.70;;;13.40;99.90;;;;;;5045738;28;20068;-69
2023/05/31 06:26:07;;;;;;;18.20;12.18;;;13.40;99.90;;;;;;5059561;28;20054;-72
2023/05/31 06:28:34;;;;;;;16.80;12.52;;;13.50;99.90;;;;;;5056609;28;20178;-70
2023/05/31 06:31:00;;;;;;;18.00;12.77;;;13.50;99.90;;;;;;5047541;28;20095;-70
2023/05/31 06:33:26;;;;;;;17.08;11.77;;;13.60;99.90;;;;;;5055014;28;20072;-69
2023/05/31 06:35:52;;;;;;;17.10;11.63;;;13.70;99.90;;;;;;5060053;28;20623;-69
2023/05/31 06:38:17;;;;;;;19.27;11.38;;;13.80;99.90;;;;;;5056021;28;20049;-71
2023/05/31 06:40:44;;;;;;;16.80;11.75;;;13.90;99.90;;;;;;5054684;28;20174;-70
2023/05/31 06:43:10;;;;;;;19.98;11.75;;;14.00;99.90;;;;;;5053336;28;20039;-70
2023/05/31 06:45:37;;;;;;;17.17;11.52;;;14.10;99.90;;;;;;5043216;28;20453;-69
2023/05/31 06:48:03;;;;;;;16.42;10.38;;;14.20;99.90;;;;;;5048637;28;20992;-69
2023/05/31 06:50:29;;;;;;;15.82;10.30;;;14.20;99.90;;;;;;5051160;28;20048;-70
2023/05/31 06:52:55;;;;;;;17.15;11.40;;;14.30;99.90;;;;;;5066858;28;20048;-70
2023/05/31 06:55:20;;;;;;;20.25;11.20;;;14.40;99.90;;;;;;5047014;28;20045;-69
2023/05/31 06:57:46;;;;;;;17.60;10.95;;;14.40;99.90;;;;;;5056164;28;20456;-70
2023/05/31 07:00:12;;;;;;;14.35;9.75;;;14.50;99.90;;;;;;5062629;28;20073;-70
2023/05/31 07:02:38;;;;;;;14.65;10.43;;;14.60;99.90;;;;;;5060826;28;20472;-69
2023/05/31 07:05:04;;;;;;;18.08;10.25;;;14.70;99.90;;;;;;5058727;28;20058;-72
2023/05/31 07:07:29;;;;;;;15.25;9.98;;;14.70;99.90;;;;;;5055282;28;22396;-72
2023/05/31 07:09:55;;;;;;;15.63;9.60;;;14.90;99.90;;;;;;5053245;28;20139;-73
2023/05/31 07:12:21;;;;;;;15.27;9.68;;;14.90;99.90;;;;;;5051516;28;20071;-74
2023/05/31 07:14:46;;;;;;;16.58;9.82;;;15.00;99.90;;;;;;5044635;28;20459;-74
2023/05/31 07:17:12;;;;;;;16.65;10.05;;;15.10;99.90;;;;;;5049385;28;20045;-71
2023/05/31 07:19:47;;;;;;;16.08;9.90;;;15.20;99.90;;;;;;5044666;28;20106;-73
2023/05/31 07:22:17;;;;;;;15.00;9.40;;;15.20;99.90;;;;;;5053254;28;20447;-73
2023/05/31 07:24:44;;;;;;;14.68;9.50;;;15.30;99.90;;;;;;5033812;28;20132;-73
2023/05/31 07:27:10;;;;;;;15.32;9.55;;;15.30;99.90;;;;;;5046739;28;20040;-74
2023/05/31 07:29:36;;;;;;;14.15;9.35;;;15.40;99.90;;;;;;5037087;28;20103;-73
2023/05/31 07:32:02;;;;;;;14.53;9.77;;;15.50;99.90;;;;;;5034322;28;20041;-74
2023/05/31 07:34:28;;;;;;;13.32;9.45;;;15.50;99.90;;;;;;5048445;28;20047;-75
2023/05/31 07:36:53;;;;;;;13.30;8.73;;;15.60;99.90;;;;;;5053577;28;20063;-72
2023/05/31 07:39:22;;;;;;;13.40;9.10;;;15.70;99.90;;;;;;5061072;28;20055;-73
2023/05/31 07:41:48;;;;;;;15.23;9.60;;;15.70;99.90;;;;;;5046486;28;20045;-74
2023/05/31 07:44:16;;;;;;;16.48;9.40;;;15.80;99.90;;;;;;5047340;28;20051;-69
2023/05/31 07:46:44;;;;;;;15.77;9.63;;;15.80;99.90;;;;;;5040099;28;20036;-71
2023/05/31 07:49:10;;;;;;;14.73;8.70;;;15.90;99.90;;;;;;5057887;28;20056;-73
2023/05/31 07:51:36;;;;;;;14.02;9.32;;;15.90;99.90;;;;;;5064074;28;20036;-72
2023/05/31 07:54:02;;;;;;;13.65;9.27;;;16.00;99.90;;;;;;5062570;28;20048;-73
2023/05/31 07:56:31;;;;;;;14.88;8.40;;;16.10;99.90;;;;;;5047685;28;20056;-75
2023/05/31 07:58:57;;;;;;;12.30;8.15;;;16.10;99.90;;;;;;5041423;28;20102;-73
2023/05/31 08:01:23;;;;;;;13.18;8.15;;;16.20;99.90;;;;;;5051669;28;20044;-73
2023/05/31 08:03:50;;;;;;;13.38;8.23;;;16.30;99.90;;;;;;5045449;28;20060;-73
2023/05/31 08:06:16;;;;;;;15.25;8.65;;;16.40;99.90;;;;;;5037371;28;20515;-74
2023/05/31 08:08:43;;;;;;;14.80;8.35;;;16.50;99.90;;;;;;5036598;28;20048;-73
2023/05/31 08:11:09;;;;;;;13.82;8.27;;;16.50;99.90;;;;;;5057716;28;20074;-74
2023/05/31 08:13:39;;;;;;;12.30;7.80;;;16.70;99.90;;;;;;5063490;28;20548;-73
2023/05/31 08:16:05;;;;;;;13.98;7.85;;;16.70;99.90;;;;;;5040633;28;20090;-73
2023/05/31 08:18:31;;;;;;;12.98;7.75;;;16.80;99.90;;;;;;5055388;28;20046;-71
2023/05/31 08:20:57;;;;;;;11.80;7.88;;;16.90;99.90;;;;;;5051363;28;20036;-73
2023/05/31 08:23:22;;;;;;;16.33;6.97;;;17.00;99.90;;;;;;5048803;28;20036;-74
2023/05/31 08:25:48;;;;;;;12.05;6.95;;;17.10;99.90;;;;;;5050693;28;20037;-73
2023/05/31 08:28:14;;;;;;;12.75;6.78;;;17.20;99.90;;;;;;5039476;28;20053;-72
2023/05/31 08:30:40;;;;;;;13.85;7.30;;;17.20;99.90;;;;;;5051037;28;20040;-71
2023/05/31 08:33:05;;;;;;;13.55;6.72;;;17.30;99.90;;;;;;5052491;28;20045;-73
2023/05/31 08:35:31;;;;;;;12.07;6.35;;;17.40;99.90;;;;;;5048967;28;20051;-74
2023/05/31 08:37:57;;;;;;;11.68;6.88;;;17.50;99.90;;;;;;5047685;28;20419;-73
2023/05/31 08:40:24;;;;;;;13.05;6.28;;;17.60;99.90;;;;;;5055071;28;20623;-73
2023/05/31 08:42:59;;;;;;;11.82;6.60;;;17.70;99.90;;;;;;5047185;28;20725;-73
2023/05/31 08:45:29;;;;;;;12.82;6.50;;;17.80;99.90;;;;;;5042757;28;20117;-72
2023/05/31 08:48:14;;;;;;;13.27;6.55;;;17.80;99.90;;;;;;5059897;28;20072;-73
2023/05/31 08:50:42;;;;;;;16.48;6.78;;;17.90;99.90;;;;;;5050625;28;20063;-73
2023/05/31 08:53:09;;;;;;;15.00;6.75;;;18.00;99.90;;;;;;5040598;28;20052;-72
2023/05/31 08:55:37;;;;;;;12.27;6.33;;;18.10;99.90;;;;;;5038507;28;20419;-73
2023/05/31 08:58:04;;;;;;;12.13;6.07;;;18.20;99.90;;;;;;5040764;28;20053;-73
2023/05/31 09:00:32;;;;;;;11.50;6.18;;;18.30;99.90;;;;;;5039589;28;20091;-73
2023/05/31 09:02:59;;;;;;;11.95;5.78;;;18.30;99.90;;;;;;5048432;28;20040;-72
2023/05/31 09:05:25;;;;;;;11.75;5.68;;;18.40;99.90;;;;;;5039662;28;20075;-73
2023/05/31 09:07:52;;;;;;;12.55;6.13;;;18.40;99.90;;;;;;5041427;28;20492;-72
2023/05/31 09:10:19;;;;;;;13.27;6.55;;;18.50;99.90;;;;;;5061400;28;20052;-73
2023/05/31 09:12:45;;;;;;;12.13;5.93;;;18.60;99.90;;;;;;5039723;28;20047;-72
2023/05/31 09:15:16;;;;;;;12.27;5.72;;;18.70;99.90;;;;;;5047111;28;20048;-73
2023/05/31 09:17:48;;;;;;;12.48;5.75;;;18.80;99.90;;;;;;5059987;28;21421;-72
2023/05/31 09:20:13;;;;;;;10.82;5.25;;;18.90;99.90;;;;;;5064368;28;20085;-72
2023/05/31 09:22:40;;;;;;;10.15;4.85;;;19.00;99.90;;;;;;5040623;28;20041;-73
2023/05/31 09:25:06;;;;;;;9.75;5.05;;;19.10;99.90;;;;;;5043043;28;20055;-74
2023/05/31 09:27:39;;;;;;;9.50;5.72;;;19.10;99.90;;;;;;5049983;28;20041;-73
2023/05/31 09:30:11;;;;;;;13.48;6.10;;;19.20;99.90;;;;;;5038695;28;20068;-73
2023/05/31 09:32:37;;;;;;;10.02;5.05;;;19.20;99.90;;;;;;5047470;28;20087;-73
2023/05/31 09:35:12;;;;;;;9.85;5.28;;;19.30;99.90;;;;;;5069496;28;20072;-72
2023/05/31 09:37:44;;;;;;;9.68;5.13;;;19.40;99.90;;;;;;5045515;28;20073;-72
2023/05/31 09:40:12;;;;;;;10.05;4.85;;;19.50;99.90;;;;;;5053391;28;20048;-72
2023/05/31 09:42:38;;;;;;;10.63;5.05;;;19.60;99.90;;;;;;5050069;28;20044;-72
2023/05/31 09:45:04;;;;;;;8.07;4.57;;;19.70;99.90;;;;;;5038837;28;20517;-74
2023/05/31 09:47:30;;;;;;;11.35;4.95;;;19.70;99.90;;;;;;5060044;28;20514;-73
2023/05/31 09:49:55;;;;;;;10.82;4.68;;;19.80;99.90;;;;;;5049396;28;20036;-71
2023/05/31 09:52:30;;;;;;;8.25;4.82;;;19.80;99.90;;;;;;5051065;28;20102;-73
2023/05/31 09:54:59;;;;;;;11.10;4.57;;;19.90;99.90;;;;;;5052146;28;20055;-75
2023/05/31 09:57:40;;;;;;;9.80;4.70;;;20.00;99.90;;;;;;5058934;28;20055;-72
2023/05/31 10:00:15;;;;;;;8.75;3.65;;;20.10;99.90;;;;;;5041440;28;22084;-73
2023/05/31 10:02:45;;;;;;;8.70;5.20;;;20.10;99.90;;;;;;5064548;28;20109;-72
2023/05/31 10:05:13;;;;;;;10.05;5.20;;;20.30;99.90;;;;;;5055064;28;20056;-73
2023/05/31 10:07:42;;;;;;;10.25;4.78;;;20.30;99.90;;;;;;5052531;28;20048;-73
2023/05/31 10:10:09;;;;;;;9.85;4.45;;;20.30;99.90;;;;;;5038844;28;20061;-73
2023/05/31 10:13:01;;;;;;;9.68;4.40;;;20.30;99.90;;;;;;5047312;28;20044;-73
2023/05/31 10:15:27;;;;;;;12.68;4.72;;;20.40;99.90;;;;;;5038656;28;20051;-73
2023/05/31 10:18:02;;;;;;;9.10;4.43;;;20.50;99.90;;;;;;5044924;28;20056;-73
2023/05/31 10:20:38;;;;;;;11.13;5.13;;;20.60;99.90;;;;;;5057715;28;20051;-72
2023/05/31 10:23:09;;;;;;;8.55;4.82;;;20.60;99.90;;;;;;5045132;28;20066;-73
2023/05/31 10:25:44;;;;;;;8.88;4.43;;;20.60;99.90;;;;;;5045172;28;20454;-73
2023/05/31 10:28:13;;;;;;;8.85;4.03;;;20.70;99.90;;;;;;5039443;28;20088;-73
2023/05/31 10:30:41;;;;;;;10.55;4.65;;;20.60;99.50;;;;;;5051506;28;20121;-74
2023/05/31 10:33:10;;;;;;;10.13;4.63;;;20.60;99.90;;;;;;5041209;28;20057;-75
2023/05/31 10:35:36;;;;;;;9.77;4.20;;;20.70;99.60;;;;;;5033582;28;20137;-72
2023/05/31 10:38:02;;;;;;;10.68;5.25;;;20.70;99.30;;;;;;5044696;28;20458;-76
2023/05/31 10:40:37;;;;;;;8.75;4.22;;;20.70;98.70;;;;;;5059856;28;20485;-75
2023/05/31 10:43:05;;;;;;;12.07;4.95;;;20.70;98.80;;;;;;5048277;28;20040;-74
2023/05/31 10:45:51;;;;;;;12.07;4.82;;;20.80;99.00;;;;;;5060927;28;20040;-72
2023/05/31 10:48:46;;;;;;;8.70;4.50;;;20.80;98.90;;;;;;5049301;28;21692;-72
2023/05/31 10:51:12;;;;;;;9.50;4.57;;;20.90;98.80;;;;;;5062184;28;20770;-73
2023/05/31 10:53:39;;;;;;;9.57;4.17;;;20.90;98.50;;;;;;5041725;28;20568;-74
2023/05/31 10:56:06;;;;;;;8.38;4.15;;;21.00;99.00;;;;;;5049815;28;20644;-73
2023/05/31 10:58:39;;;;;;;9.43;4.15;;;21.00;98.50;;;;;;5032408;28;20095;-73
2023/05/31 11:01:10;;;;;;;9.70;4.10;;;21.10;98.10;;;;;;5043638;28;20036;-73
2023/05/31 11:03:47;;;;;;;11.43;5.45;;;21.10;99.10;;;;;;5057100;28;20424;-73
2023/05/31 11:06:17;;;;;;;13.82;5.00;;;21.30;98.40;;;;;;5052389;28;20048;-76
2023/05/31 11:09:09;;;;;;;9.63;4.25;;;21.30;98.80;;;;;;5055526;28;20628;-75
2023/05/31 11:11:41;;;;;;;9.27;4.82;;;21.50;98.70;;;;;;5037407;28;20053;-74
2023/05/31 11:14:07;;;;;;;8.25;4.20;;;21.60;98.60;;;;;;5050128;28;20590;-73
2023/05/31 11:16:53;;;;;;;9.50;4.88;;;21.70;98.80;;;;;;5043234;28;20040;-74
2023/05/31 11:19:34;;;;;;;11.73;4.82;;;21.80;98.50;;;;;;5075069;28;20132;-73
2023/05/31 11:22:07;;;;;;;10.40;5.10;;;21.80;98.30;;;;;;5048341;28;20049;-73
2023/05/31 11:24:38;;;;;;;9.70;4.80;;;21.80;97.90;;;;;;5042330;28;20411;-73
2023/05/31 11:27:11;;;;;;;12.35;5.32;;;21.80;97.80;;;;;;5044033;28;20040;-73
2023/05/31 11:29:52;;;;;;;10.10;4.95;;;21.80;97.20;;;;;;5042194;28;20048;-74
2023/05/31 11:32:19;;;;;;;9.35;5.00;;;21.80;97.00;;;;;;5041645;28;20049;-73
2023/05/31 11:35:00;;;;;;;13.70;5.03;;;21.80;97.30;;;;;;5059134;28;20123;-72
2023/05/31 11:37:37;;;;;;;11.15;5.32;;;21.90;97.60;;;;;;5046137;28;20155;-77
2023/05/31 11:40:07;;;;;;;10.38;4.95;;;22.00;97.20;;;;;;5053449;28;20052;-75
2023/05/31 11:42:40;;;;;;;10.25;4.55;;;22.00;97.60;;;;;;5041122;28;20521;-75
2023/05/31 11:45:08;;;;;;;10.35;4.47;;;22.00;97.40;;;;;;5044009;28;20115;-75
2023/05/31 11:47:57;;;;;;;12.10;5.22;;;22.10;97.20;;;;;;5046763;28;20048;-74
2023/05/31 11:50:24;;;;;;;11.32;5.90;;;22.20;97.50;;;;;;5053051;28;20871;-73
2023/05/31 11:52:50;;;;;;;10.93;4.95;;;22.20;97.10;;;;;;5062240;28;20087;-73
2023/05/31 11:55:19;;;;;;;9.25;5.40;;;22.30;97.00;;;;;;5049964;28;20443;-73
2023/05/31 11:57:46;;;;;;;8.13;5.20;;;22.30;96.50;;;;;;5053513;28;20072;-70
2023/05/31 12:00:12;;;;;;;;;;;22.30;96.40;;;;;;5066004;28;20133;-71
2023/05/31 12:02:39;;;;;;;9.35;5.05;;;22.20;96.90;;;;;;5049852;28;20434;-69
2023/05/31 12:05:05;;;;;;;;;;;22.30;97.50;;;;;;5065162;28;20711;-70
2023/05/31 12:07:32;;;;;;;8.93;4.55;;;22.30;96.80;;;;;;5055786;28;20008;-70
2023/05/31 12:09:58;;;;;;;8.23;5.07;;;22.40;96.90;;;;;;5041575;28;20371;-70
2023/05/31 12:12:24;;;;;;;8.95;4.72;;;22.40;96.40;;;;;;5040660;28;20448;-69
2023/05/31 12:14:51;;;;;;;11.48;4.97;;;22.50;95.70;;;;;;5042080;28;20056;-70
2023/05/31 12:17:16;;;;;;;8.50;4.90;;;22.50;95.90;;;;;;5043406;28;20052;-70
2023/05/31 12:19:42;;;;;;;10.38;5.68;;;22.50;95.90;;;;;;5058514;28;20039;-71
2023/05/31 12:22:08;;;;;;;14.18;5.47;;;22.40;96.10;;;;;;5055844;28;20449;-69
2023/05/31 12:24:37;;;;;;;10.48;4.90;;;22.50;95.50;;;;;;5041219;28;20492;-70
2023/05/31 12:27:02;;;;;;;9.32;4.72;;;22.50;95.40;;;;;;5040233;28;20064;-70
2023/05/31 12:29:30;;;;;;;7.57;4.65;;;22.50;95.40;;;;;;5039571;28;20053;-69
2023/05/31 12:32:06;;;;;;;8.23;4.32;;;22.50;95.50;;;;;;5041609;28;20044;-70
2023/05/31 12:34:36;;;;;;;11.35;4.93;;;22.50;95.90;;;;;;5051875;28;20139;-70
2023/05/31 12:37:06;;;;;;;11.32;4.82;;;22.60;96.30;;;;;;5040765;28;20059;-69
2023/05/31 12:39:36;;;;;;;8.98;4.72;;;22.70;96.10;;;;;;5041543;28;20036;-69